createdAt,value
2023-04-19T00:02:37.598Z,9.13
2023-04-19T00:07:30.082Z,8.57
2023-04-19T00:12:22.184Z,8.90
2023-04-19T00:17:14.309Z,8.83
2023-04-19T00:22:06.380Z,8.37
2023-04-19T00:26:59.729Z,7.27
2023-04-19T00:31:53.122Z,8.20
2023-04-19T00:36:45.167Z,7.23
2023-04-19T00:41:38.284Z,7.17
2023-04-19T00:46:30.780Z,6.87
2023-04-19T00:51:25.046Z,7.20
2023-04-19T00:56:17.770Z,7.10
2023-04-19T01:01:10.006Z,7.43
2023-04-19T01:13:03.492Z,6.53
2023-04-19T01:17:56.501Z,5.93
2023-04-19T01:22:49.016Z,7.03
2023-04-19T01:27:41.390Z,7.87
2023-04-19T01:32:33.640Z,6.93
2023-04-19T01:37:28.627Z,7.03
2023-04-19T01:42:20.742Z,7.07
2023-04-19T01:47:13.080Z,7.33
2023-04-19T01:52:06.695Z,6.77
2023-04-19T01:56:58.710Z,6.83
2023-04-19T02:01:51.404Z,7.13
2023-04-19T02:06:43.388Z,6.80
2023-04-19T02:11:35.495Z,7.27
2023-04-19T02:16:27.615Z,7.23
2023-04-19T02:21:19.756Z,7.23
2023-04-19T02:26:13.143Z,7.70
2023-04-19T02:31:08.484Z,7.30
2023-04-19T02:36:00.563Z,7.07
2023-04-19T02:40:52.602Z,9.17
2023-04-19T02:45:44.704Z,8.23
2023-04-19T02:50:41.423Z,8.03
2023-04-19T02:55:34.068Z,7.60
2023-04-19T03:00:32.108Z,8.07
2023-04-19T03:05:33.348Z,7.87
2023-04-19T03:10:26.209Z,8.53
2023-04-19T03:15:20.241Z,9.27
2023-04-19T03:20:14.812Z,10.13
2023-04-19T03:25:07.230Z,10.40
2023-04-19T03:30:00.592Z,11.37
2023-04-19T03:34:54.712Z,10.10
2023-04-19T03:39:46.881Z,13.13
2023-04-19T03:44:44.994Z,12.97
2023-04-19T03:49:37.367Z,12.97
2023-04-19T03:54:31.500Z,12.37
2023-04-19T03:59:24.553Z,11.63
2023-04-19T04:04:17.450Z,10.33
2023-04-19T04:09:11.183Z,10.10
2023-04-19T04:14:04.585Z,13.23
2023-04-19T04:19:00.724Z,11.17
2023-04-19T04:23:55.404Z,8.27
2023-04-19T04:28:57.163Z,8.37
2023-04-19T04:33:51.029Z,7.70
2023-04-19T04:38:46.785Z,7.43
2023-04-19T04:43:39.781Z,6.80
2023-04-19T04:48:31.967Z,6.87
2023-04-19T04:53:27.095Z,6.20
2023-04-19T04:58:20.443Z,7.23
2023-04-19T05:03:33.995Z,6.50
2023-04-19T05:08:30.202Z,6.30
2023-04-19T05:13:34.350Z,5.40
2023-04-19T05:18:27.175Z,4.80
2023-04-19T05:23:20.520Z,3.70
2023-04-19T05:28:13.988Z,3.83
2023-04-19T05:33:17.087Z,3.77
2023-04-19T05:38:09.517Z,2.80
2023-04-19T05:43:01.807Z,3.00
2023-04-19T05:47:54.325Z,2.50
2023-04-19T05:53:22.166Z,2.30
2023-04-19T05:58:16.193Z,2.57
2023-04-19T06:03:08.583Z,2.33
2023-04-19T06:08:02.708Z,2.20
2023-04-19T06:12:55.338Z,2.50
2023-04-19T06:17:47.717Z,2.73
2023-04-19T06:22:45.102Z,2.20
2023-04-19T06:27:37.399Z,1.80
2023-04-19T06:32:29.488Z,2.53
2023-04-19T06:37:21.641Z,2.07
2023-04-19T06:42:13.844Z,2.37
2023-04-19T06:47:06.066Z,1.97
2023-04-19T06:51:59.917Z,1.80
2023-04-19T06:56:52.070Z,1.87
2023-04-19T07:01:44.719Z,2.00
2023-04-19T07:06:37.768Z,1.50
2023-04-19T07:11:30.188Z,1.70
2023-04-19T07:16:22.514Z,1.67
2023-04-19T07:21:15.161Z,2.20
2023-04-19T07:26:08.028Z,3.50
2023-04-19T07:31:01.186Z,2.33
2023-04-19T07:35:53.510Z,2.03
2023-04-19T07:40:46.039Z,1.67
2023-04-19T07:45:38.666Z,1.98
2023-04-19T07:50:30.779Z,1.77
2023-04-19T07:55:23.357Z,1.58
2023-04-19T08:00:16.858Z,1.75
2023-04-19T08:05:09.676Z,1.73
2023-04-19T08:10:01.995Z,1.40
2023-04-19T08:15:04.687Z,1.80
2023-04-19T08:19:59.838Z,1.92
2023-04-19T08:24:52.963Z,2.03
2023-04-19T08:29:45.994Z,2.17
2023-04-19T08:34:39.870Z,1.65
2023-04-19T08:39:34.013Z,1.60
2023-04-19T08:44:35.963Z,1.92
2023-04-19T08:49:29.451Z,1.77
2023-04-19T08:54:22.495Z,2.30
2023-04-19T08:59:20.495Z,2.13
2023-04-19T09:09:37.231Z,2.63
2023-04-19T09:14:33.127Z,2.67
2023-04-19T09:19:25.687Z,2.30
2023-04-19T09:24:17.892Z,2.43
2023-04-19T09:29:13.748Z,2.40
2023-04-19T09:34:17.246Z,2.53
2023-04-19T09:39:09.382Z,2.90
2023-04-19T09:44:50.275Z,2.65
2023-04-19T09:49:37.589Z,2.57
2023-04-19T09:54:37.584Z,2.40
2023-04-19T09:59:29.797Z,2.67
2023-04-19T10:04:37.767Z,1.80
2023-04-19T10:09:45.859Z,2.35
2023-04-19T10:14:45.057Z,2.33
2023-04-19T10:19:38.321Z,2.10
2023-04-19T10:24:30.492Z,2.90
2023-04-19T10:29:54.829Z,4.57
2023-04-19T10:34:47.230Z,3.03
2023-04-19T10:39:41.323Z,2.67
2023-04-19T10:44:33.435Z,2.23
2023-04-19T10:49:28.212Z,3.83
2023-04-19T10:54:38.620Z,2.43
2023-04-19T10:59:35.362Z,3.17
2023-04-19T11:04:30.647Z,2.00
2023-04-19T11:09:31.511Z,2.57
2023-04-19T11:14:25.636Z,3.17
2023-04-19T11:19:18.559Z,3.20
2023-04-19T11:24:11.603Z,13.77
2023-04-19T11:29:04.747Z,2.60
2023-04-19T11:34:00.560Z,5.83
2023-04-19T11:38:53.573Z,5.00
2023-04-19T11:43:47.013Z,4.27
2023-04-19T11:48:53.480Z,2.10
2023-04-19T11:53:47.210Z,2.33
2023-04-19T11:58:43.162Z,2.47
2023-04-19T12:03:48.420Z,2.13
2023-04-19T12:08:47.468Z,2.47
2023-04-19T12:13:44.598Z,2.50
2023-04-19T12:19:17.541Z,2.37
2023-04-19T12:24:10.516Z,2.30
2023-04-19T12:29:03.876Z,5.13
2023-04-19T12:33:56.009Z,3.30
2023-04-19T12:38:48.083Z,2.97
2023-04-19T12:43:40.311Z,3.60
2023-04-19T12:48:34.343Z,2.77
2023-04-19T12:53:26.548Z,2.83
2023-04-19T12:58:20.989Z,2.50
2023-04-19T13:03:13.367Z,2.47
2023-04-19T13:08:06.473Z,2.73
2023-04-19T13:12:59.314Z,3.83
2023-04-19T13:17:54.568Z,2.83
2023-04-19T13:22:46.954Z,2.43
2023-04-19T13:27:39.025Z,3.13
2023-04-19T13:32:31.063Z,3.20
2023-04-19T13:37:23.096Z,3.27
2023-04-19T13:42:15.284Z,2.87
2023-04-19T13:47:07.597Z,15.13
2023-04-19T13:51:59.752Z,4.90
2023-04-19T13:56:52.452Z,6.47
2023-04-19T14:01:44.647Z,3.83
2023-04-19T14:06:36.668Z,3.47
2023-04-19T14:11:29.072Z,5.23
2023-04-19T14:16:21.387Z,4.00
2023-04-19T14:21:13.582Z,3.00
2023-04-19T14:26:05.645Z,3.97
2023-04-19T14:30:57.657Z,3.60
2023-04-19T14:35:49.876Z,3.07
2023-04-19T14:40:42.219Z,3.23
2023-04-19T14:45:34.458Z,3.03
2023-04-19T14:50:26.789Z,2.80
2023-04-19T14:55:18.870Z,2.90
2023-04-19T15:00:11.516Z,2.63
2023-04-19T15:05:03.995Z,2.93
2023-04-19T15:09:56.196Z,2.90
2023-04-19T15:14:48.238Z,3.90
2023-04-19T15:19:40.479Z,3.50
2023-04-19T15:24:34.981Z,3.83
2023-04-19T15:36:36.122Z,3.73
2023-04-19T15:41:38.880Z,4.00
2023-04-19T15:46:31.272Z,4.13
2023-04-19T15:51:23.435Z,3.57
2023-04-19T15:56:15.983Z,3.80
2023-04-19T16:01:11.347Z,4.20
2023-04-19T16:06:03.575Z,3.40
2023-04-19T16:10:55.671Z,3.63
2023-04-19T16:15:47.865Z,3.20
2023-04-19T16:20:40.750Z,3.97
2023-04-19T16:25:33.333Z,3.00
2023-04-19T16:30:26.977Z,2.83
2023-04-19T16:40:57.533Z,3.97
2023-04-19T16:45:49.900Z,4.40
2023-04-19T16:50:43.287Z,3.50
2023-04-19T16:55:36.238Z,3.30
2023-04-19T17:00:29.965Z,2.90
2023-04-19T17:05:22.175Z,4.17
2023-04-19T17:10:14.408Z,4.73
2023-04-19T17:15:06.891Z,3.90
2023-04-19T17:20:00.227Z,4.90
2023-04-19T17:24:54.130Z,3.73
2023-04-19T17:29:46.360Z,3.83
2023-04-19T17:34:40.041Z,4.57
2023-04-19T17:39:32.164Z,4.50
2023-04-19T17:44:24.415Z,3.20
2023-04-19T17:49:19.066Z,4.37
2023-04-19T17:54:11.548Z,4.87
2023-04-19T17:59:04.147Z,4.63
2023-04-19T18:03:56.681Z,4.17
2023-04-19T18:08:48.959Z,3.90
2023-04-19T18:13:42.500Z,4.47
2023-04-19T18:18:34.693Z,6.20
2023-04-19T18:23:26.876Z,4.83
2023-04-19T18:28:18.868Z,4.20
2023-04-19T18:33:11.484Z,4.53
2023-04-19T18:38:04.028Z,6.07
2023-04-19T18:42:56.303Z,5.70
2023-04-19T18:47:49.769Z,5.13
2023-04-19T18:52:43.074Z,5.20
2023-04-19T18:57:36.457Z,12.30
2023-04-19T19:02:29.197Z,17.70
2023-04-19T19:07:34.858Z,9.90
2023-04-19T19:12:28.167Z,5.17
2023-04-19T19:17:20.269Z,5.77
2023-04-19T19:22:25.053Z,4.97
2023-04-19T19:27:19.412Z,5.50
2023-04-19T19:32:11.472Z,4.83
2023-04-19T19:37:04.135Z,5.23
2023-04-19T19:42:06.073Z,4.80
2023-04-19T19:46:58.736Z,5.27
2023-04-19T19:51:58.211Z,5.40
2023-04-19T20:01:46.611Z,5.37
2023-04-19T20:07:22.458Z,5.63
2023-04-19T20:11:50.767Z,5.10
2023-04-19T20:16:43.008Z,5.57
2023-04-19T20:21:38.192Z,4.80
2023-04-19T20:26:30.318Z,5.03
2023-04-19T20:31:23.963Z,5.00
2023-04-19T20:36:16.527Z,4.87
2023-04-19T20:41:08.752Z,5.37
2023-04-19T20:46:01.237Z,4.30
2023-04-19T20:50:53.329Z,5.83
2023-04-19T20:55:45.336Z,5.40
2023-04-19T21:00:37.475Z,4.83
2023-04-19T21:05:29.665Z,5.27
2023-04-19T21:10:24.915Z,5.50
2023-04-19T21:15:17.409Z,4.90
2023-04-19T21:20:15.362Z,5.73
2023-04-19T21:25:08.482Z,5.63
2023-04-19T21:30:01.101Z,5.27
2023-04-19T21:34:53.213Z,5.20
2023-04-19T21:39:45.489Z,4.83
2023-04-19T21:44:37.772Z,5.00
2023-04-19T21:49:29.895Z,5.00
2023-04-19T21:54:30.994Z,4.93
2023-04-19T21:59:25.394Z,5.17
2023-04-19T22:04:18.677Z,4.43
2023-04-19T22:09:13.504Z,4.33
2023-04-19T22:14:07.947Z,4.53
2023-04-19T22:19:00.217Z,4.37
2023-04-19T22:23:52.911Z,4.50
2023-04-19T22:28:45.609Z,4.17
2023-04-19T22:33:40.843Z,4.40
2023-04-19T22:38:35.688Z,3.73
2023-04-19T22:43:27.830Z,4.13
2023-04-19T22:48:19.854Z,4.13
2023-04-19T22:53:12.960Z,4.00
2023-04-19T22:58:05.392Z,4.77
2023-04-19T23:03:00.378Z,5.33
2023-04-19T23:07:57.386Z,5.23
2023-04-19T23:12:49.668Z,5.30
2023-04-19T23:17:42.013Z,5.13
2023-04-19T23:22:34.106Z,4.90
2023-04-19T23:27:26.579Z,3.53
2023-04-19T23:32:18.734Z,4.30
2023-04-19T23:37:12.338Z,4.33
2023-04-19T23:42:04.466Z,4.43
2023-04-19T23:46:56.650Z,3.90
2023-04-19T23:51:52.838Z,3.53
2023-04-19T23:56:45.504Z,4.10
